Fairchem Filly — 3EJM9 — position and weather

sailwx.info

Track history (hours):
 
Tides and Currents Weather Stations Pressure Air Temp Water Temp Dewpoint Dewpoint Depression Visibility Wind Speed Wind Dir Waves Ship Positions

Fairchem Filly

Last reported at 2015-Mar-30 22:22 UTC. Time now 2015-Mar-31 16:58 UTC.
Position N 41°19' E 002°12'.

Length 146 m; draft 8.6 m.

Type: Ship (hazmat cat B). MMSI: 372566000.

Date/timePositionNaut miles runAvg speedWind from/ knotsBaromVisibWave heightAir tempDewpointWater temp
2015-Mar-30 22:22N 41°19' E 002°12'2 2.5
2015-Mar-30 21:33N 41°17' E 002°11'9 9.4
2015-Mar-30 20:33N 41°10' E 002°20'1413.9
2015-Mar-30 19:33N 41°04' E 002°36'1414.3
2015-Mar-30 18:33N 40°57' E 002°53'1514.7
2015-Mar-30 17:33N 40°50' E 003°10'1414.3
2015-Mar-30 16:33N 40°44' E 003°26'1714.9
2015-Mar-30 15:27N 40°36' E 003°46'1314.6
2015-Mar-30 14:33N 40°30' E 004°01'20612.8
2015-Mar-29 22:30N 38°54' E 007°58'2311.8
2015-Mar-29 20:33N 38°45' E 008°25'1211.5
2015-Mar-29 19:32N 38°43' E 008°40'1312.8
2015-Mar-29 18:33N 38°47' E 008°55'1312.9
2015-Mar-29 17:33N 38°55' E 009°08'10 9.6
2015-Mar-29 16:32N 39°04' E 009°03'0 0.1
2015-Mar-29 15:32N 39°04' E 009°03'1 1.2
2015-Mar-29 14:33N 39°05' E 009°02'0 0.0
2015-Mar-29 13:33N 39°05' E 009°02'0 0.0
2015-Mar-29 12:33N 39°05' E 009°02'0 0.0
2015-Mar-29 11:33N 39°05' E 009°02'0 0.0
2015-Mar-29 10:33N 39°05' E 009°02'0 0.0
2015-Mar-29 09:33N 39°05' E 009°02'0 0.0
2015-Mar-29 08:33N 39°05' E 009°02'0 0.0
2015-Mar-29 07:33N 39°05' E 009°02'0 0.0
2015-Mar-29 06:33N 39°05' E 009°02'0 0.0
2015-Mar-29 05:33N 39°05' E 009°02'0 0.0
2015-Mar-29 04:33N 39°05' E 009°02'0 0.0
2015-Mar-29 03:33N 39°05' E 009°02'0 0.0
2015-Mar-29 02:33N 39°05' E 009°02'0 0.0
2015-Mar-29 01:33N 39°05' E 009°02'0 0.0
2015-Mar-29 00:33N 39°05' E 009°02'0 0.0
2015-Mar-28 23:33N 39°05' E 009°02'0 0.0
2015-Mar-28 22:32N 39°05' E 009°02'0 0.0
2015-Mar-28 21:32N 39°05' E 009°02'0 0.0
2015-Mar-28 20:32N 39°05' E 009°02'0 0.0
2015-Mar-28 19:32N 39°05' E 009°02'0 0.0
2015-Mar-28 18:32N 39°05' E 009°02'0 0.0
2015-Mar-28 17:32N 39°05' E 009°02'0 0.0
2015-Mar-28 16:32N 39°05' E 009°02'0 0.0
2015-Mar-28 15:30N 39°05' E 009°02'2 2.1
2015-Mar-28 14:30N 39°07' E 009°03'0 0.1
2015-Mar-28 13:33N 39°07' E 009°03'0 0.0
2015-Mar-28 12:33N 39°07' E 009°03'0 0.0
2015-Mar-28 11:33N 39°07' E 009°03'0 0.0
2015-Mar-28 10:33N 39°07' E 009°03'0 0.0
2015-Mar-28 09:33N 39°07' E 009°03'0 0.0
2015-Mar-28 08:33N 39°07' E 009°03'0 0.0
2015-Mar-28 07:33N 39°07' E 009°03'0 0.0
2015-Mar-28 06:33N 39°07' E 009°03'0 0.0
2015-Mar-28 05:33N 39°07' E 009°03'0 0.0
2015-Mar-28 04:33N 39°07' E 009°03'0 0.0
2015-Mar-28 03:33N 39°07' E 009°03'0 0.0
2015-Mar-28 02:33N 39°07' E 009°03'0 0.0
2015-Mar-28 01:33N 39°07' E 009°03'0 0.0
2015-Mar-28 00:33N 39°07' E 009°03'0 0.0
2015-Mar-27 23:33N 39°07' E 009°03'0 0.0
2015-Mar-27 22:33N 39°07' E 009°03'0 0.0
2015-Mar-27 21:33N 39°07' E 009°03'0 0.0
2015-Mar-27 20:33N 39°07' E 009°03'0 0.0
2015-Mar-27 19:33N 39°07' E 009°03'2 1.6
2015-Mar-27 18:33N 39°06' E 009°02'0 0.0
2015-Mar-27 17:33N 39°06' E 009°02'0 0.0
2015-Mar-27 16:33N 39°06' E 009°02'0 0.0
2015-Mar-27 15:33N 39°06' E 009°02'0 0.0
2015-Mar-27 14:33N 39°06' E 009°02'0 0.0
2015-Mar-27 13:33N 39°06' E 009°02'0 0.0
2015-Mar-27 12:33N 39°06' E 009°02'0 0.0
2015-Mar-27 11:33N 39°06' E 009°02'0 0.0
2015-Mar-27 10:33N 39°06' E 009°02'0 0.0
2015-Mar-27 09:33N 39°06' E 009°02'0 0.0
2015-Mar-27 08:33N 39°06' E 009°02'0 0.0
2015-Mar-27 07:33N 39°06' E 009°02'0 0.0
2015-Mar-27 06:33N 39°06' E 009°02'0 0.0
2015-Mar-27 05:33N 39°06' E 009°02'0 0.0
2015-Mar-27 04:33N 39°06' E 009°02'0 0.0
2015-Mar-27 03:33N 39°06' E 009°02'0 0.0
2015-Mar-27 02:33N 39°06' E 009°02'0 0.0
2015-Mar-27 01:33N 39°06' E 009°02'0 0.0
2015-Mar-27 00:33N 39°06' E 009°02'0 0.0
2015-Mar-26 23:33N 39°06' E 009°02'0 0.0
2015-Mar-26 22:33N 39°06' E 009°02'0 0.0
2015-Mar-26 21:33N 39°06' E 009°02'0 0.0
2015-Mar-26 20:33N 39°06' E 009°02'0 0.0
2015-Mar-26 19:33N 39°06' E 009°02'0 0.0
2015-Mar-26 18:33N 39°06' E 009°02'0 0.0
2015-Mar-26 17:33N 39°06' E 009°02'0 0.0
2015-Mar-26 16:33N 39°06' E 009°02'0 0.0
2015-Mar-26 15:33N 39°06' E 009°02'0 0.0
2015-Mar-26 14:33N 39°06' E 009°02'0 0.0
2015-Mar-26 13:33N 39°06' E 009°02'0 0.0
2015-Mar-26 12:33N 39°06' E 009°02'0 0.0
2015-Mar-26 11:33N 39°06' E 009°02'0 0.0
2015-Mar-26 10:33N 39°06' E 009°02'0 0.0
2015-Mar-26 09:33N 39°06' E 009°02'2 2.2
2015-Mar-26 08:33N 39°07' E 009°04'0 0.0
2015-Mar-26 07:33N 39°07' E 009°04'0 0.0
2015-Mar-26 06:33N 39°07' E 009°04'0 0.0
2015-Mar-26 05:33N 39°07' E 009°04'0 0.0
2015-Mar-26 04:33N 39°07' E 009°04'0 0.0
2015-Mar-26 03:33N 39°07' E 009°04'0 0.2
2015-Mar-26 02:33N 39°07' E 009°04'0 0.0
2015-Mar-26 01:33N 39°07' E 009°04'0 0.0
2015-Mar-26 00:33N 39°07' E 009°04'0 0.0
2015-Mar-25 23:33N 39°07' E 009°04'0 0.0
2015-Mar-25 22:33N 39°07' E 009°04'0 0.0
2015-Mar-25 21:33N 39°07' E 009°04'0 0.1
2015-Mar-25 20:33N 39°07' E 009°04'0 0.1
2015-Mar-25 19:33N 39°07' E 009°04'0 0.1
2015-Mar-25 18:33N 39°07' E 009°04'0 0.0
2015-Mar-25 17:33N 39°07' E 009°04'0 0.0
2015-Mar-25 16:33N 39°07' E 009°04'0 0.0
2015-Mar-25 15:33N 39°07' E 009°04'0 0.0
2015-Mar-25 14:33N 39°07' E 009°04'0 0.1
2015-Mar-25 13:32N 39°07' E 009°04'0 0.0
2015-Mar-25 12:32N 39°07' E 009°04'0 0.0
2015-Mar-25 11:32N 39°07' E 009°04'0 0.1
2015-Mar-25 10:32N 39°07' E 009°04'0 0.1
2015-Mar-25 09:32N 39°07' E 009°04'0 0.0
2015-Mar-25 08:32N 39°07' E 009°04'0 0.0
2015-Mar-25 07:32N 39°07' E 009°04'0 0.0
2015-Mar-25 06:32N 39°07' E 009°04'0 0.1
2015-Mar-25 05:32N 39°07' E 009°04'0 0.0
2015-Mar-25 04:32N 39°07' E 009°04'0 0.0
2015-Mar-25 03:32N 39°07' E 009°04'0 0.0
2015-Mar-25 02:32N 39°07' E 009°04'0 0.0
2015-Mar-25 01:32N 39°07' E 009°04'0 0.0
2015-Mar-25 00:32N 39°07' E 009°04'0 0.0
2015-Mar-24 23:32N 39°07' E 009°04'0 0.0
2015-Mar-24 22:32N 39°07' E 009°04'0 0.0
2015-Mar-24 21:32N 39°07' E 009°04'0 0.0
2015-Mar-24 20:32N 39°07' E 009°04'0 0.0
2015-Mar-24 19:32N 39°07' E 009°04'0 0.0
2015-Mar-24 18:32N 39°07' E 009°04'0 0.0
2015-Mar-24 17:32N 39°07' E 009°04'0 0.0
2015-Mar-24 16:32N 39°07' E 009°04'0 0.0
2015-Mar-24 15:32N 39°07' E 009°04'0 0.0
2015-Mar-24 14:32N 39°07' E 009°04'0 0.0
2015-Mar-24 13:32N 39°07' E 009°04'0 0.0
2015-Mar-24 12:32N 39°07' E 009°04'0 0.0
2015-Mar-24 11:32N 39°07' E 009°04'0 0.0
2015-Mar-24 10:32N 39°07' E 009°04'0 0.0
2015-Mar-24 09:32N 39°07' E 009°04'0 0.0
2015-Mar-24 08:32N 39°07' E 009°04'0 0.0
2015-Mar-24 07:32N 39°07' E 009°04'0 0.0
2015-Mar-24 06:32N 39°07' E 009°04'0 0.0
2015-Mar-24 05:32N 39°07' E 009°04'0 0.0
2015-Mar-24 04:32N 39°07' E 009°04'0 0.0
2015-Mar-24 03:32N 39°07' E 009°04'0 0.0
2015-Mar-24 02:32N 39°07' E 009°04'0 0.0
2015-Mar-24 01:32N 39°07' E 009°04'0 0.0
2015-Mar-24 00:32N 39°07' E 009°04'0 0.0
2015-Mar-23 23:32N 39°07' E 009°04'0 0.0
2015-Mar-23 22:32N 39°07' E 009°04'0 0.0
2015-Mar-23 21:32N 39°07' E 009°04'0 0.0
2015-Mar-23 20:32N 39°07' E 009°04'0 0.0
2015-Mar-23 19:32N 39°07' E 009°04'0 0.0
2015-Mar-23 18:32N 39°07' E 009°04'0 0.0
2015-Mar-23 17:32N 39°07' E 009°04'0 0.0
2015-Mar-23 16:32N 39°07' E 009°04'0 0.0
2015-Mar-23 15:32N 39°07' E 009°04'0 0.0
2015-Mar-23 14:32N 39°07' E 009°04'0 0.0
2015-Mar-23 13:32N 39°07' E 009°04'0 0.0
2015-Mar-23 12:32N 39°07' E 009°04'0 0.0
2015-Mar-23 11:32N 39°07' E 009°04'0 0.0
2015-Mar-23 10:32N 39°07' E 009°04'0 0.0
2015-Mar-23 09:32N 39°07' E 009°04'0 0.1
2015-Mar-23 08:32N 39°07' E 009°04'0 0.0
2015-Mar-23 07:32N 39°07' E 009°04'0 0.0
2015-Mar-23 06:32N 39°07' E 009°04'0 0.0
2015-Mar-23 05:32N 39°07' E 009°04'0 0.0
2015-Mar-23 04:32N 39°07' E 009°04'0 0.0
2015-Mar-23 03:32N 39°07' E 009°04'0 0.0
2015-Mar-23 02:32N 39°07' E 009°04'0 0.0
2015-Mar-23 01:32N 39°07' E 009°04'0 0.0
2015-Mar-23 00:32N 39°07' E 009°04'0 0.0
2015-Mar-22 23:32N 39°07' E 009°04'0 0.0
2015-Mar-22 22:32N 39°07' E 009°04'0 0.0
2015-Mar-22 21:32N 39°07' E 009°04'0 0.0
2015-Mar-22 20:32N 39°07' E 009°04'0 0.0
2015-Mar-22 19:32N 39°07' E 009°04'0 0.0
2015-Mar-22 18:32N 39°07' E 009°04'0 0.0
2015-Mar-22 17:32N 39°07' E 009°04'0 0.0
2015-Mar-22 16:32N 39°07' E 009°04'0 0.0
2015-Mar-22 15:32N 39°07' E 009°04'0 0.1
2015-Mar-22 14:32N 39°07' E 009°04'0 0.0
2015-Mar-22 13:32N 39°07' E 009°04'0 0.0
2015-Mar-22 12:32N 39°07' E 009°04'0 0.1
2015-Mar-22 11:32N 39°07' E 009°04'0 0.1
2015-Mar-22 10:32N 39°07' E 009°04'0 0.0
2015-Mar-22 09:32N 39°07' E 009°04'0 0.1
2015-Mar-22 08:32N 39°07' E 009°04'0 0.0
2015-Mar-22 07:32N 39°07' E 009°04'0 0.0
2015-Mar-22 06:32N 39°07' E 009°04'0 0.0
2015-Mar-22 05:32N 39°07' E 009°04'0 0.0
2015-Mar-22 04:32N 39°07' E 009°04'0 0.0
2015-Mar-22 03:32N 39°07' E 009°04'0 0.0
2015-Mar-22 02:32N 39°07' E 009°04'0 0.0
2015-Mar-22 01:32N 39°07' E 009°04'0 0.1
2015-Mar-22 00:32N 39°07' E 009°04'0 0.1
2015-Mar-21 23:29N 39°07' E 009°04'0 0.1
2015-Mar-21 22:32N 39°07' E 009°04'0 0.0
2015-Mar-21 21:32N 39°07' E 009°04'0 0.1
2015-Mar-21 20:32N 39°07' E 009°04'0 0.0
2015-Mar-21 19:32N 39°07' E 009°04'0 0.0
2015-Mar-21 18:32N 39°07' E 009°04'0 0.0
2015-Mar-21 17:32N 39°07' E 009°04'0 0.0
2015-Mar-21 16:32N 39°07' E 009°04'0 0.0
2015-Mar-21 15:32N 39°07' E 009°04'0 0.0
2015-Mar-21 14:29N 39°07' E 009°04'0 0.1
2015-Mar-21 13:32N 39°07' E 009°04'0 0.0
2015-Mar-21 12:32N 39°07' E 009°04'0 0.1
2015-Mar-21 11:32N 39°07' E 009°04'0 0.0
2015-Mar-21 10:32N 39°07' E 009°04'0 0.0
2015-Mar-21 09:32N 39°07' E 009°04'0 0.0
2015-Mar-21 08:32N 39°07' E 009°04'0 0.1
2015-Mar-21 07:32N 39°07' E 009°04'0 0.0
2015-Mar-21 06:32N 39°07' E 009°04'0 0.0
2015-Mar-21 05:32N 39°07' E 009°04'0 0.0
2015-Mar-21 04:29N 39°07' E 009°04'0 0.0
2015-Mar-21 03:33N 39°07' E 009°04'0 0.0
2015-Mar-21 02:32N 39°07' E 009°04'0 0.0
2015-Mar-21 01:32N 39°07' E 009°04'0 0.0
2015-Mar-21 00:32N 39°07' E 009°04'0 0.0
2015-Mar-20 23:32N 39°07' E 009°04'0 0.0
2015-Mar-20 22:32N 39°07' E 009°04'  
Track history (hours):
 
Tides and Currents Weather Stations Pressure Air Temp Water Temp Dewpoint Dewpoint Depression Visibility Wind Speed Wind Dir Waves Ship Positions

Fairchem Filly

Last reported at 2015-Mar-30 22:22 UTC. Time now 2015-Mar-31 16:59 UTC.
Position N 41°19' E 002°12'.

Length 146 m; draft 8.6 m.

Type: Ship (hazmat cat B). MMSI: 372566000.

Date/timePositionNaut miles runAvg speedWind from/ knotsBaromVisibWave heightAir tempDewpointWater temp
2015-Mar-30 22:22N 41°19' E 002°12'2 2.5
2015-Mar-30 21:33N 41°17' E 002°11'9 9.4
2015-Mar-30 20:33N 41°10' E 002°20'1413.9
2015-Mar-30 19:33N 41°04' E 002°36'1414.3
2015-Mar-30 18:33N 40°57' E 002°53'1514.7
2015-Mar-30 17:33N 40°50' E 003°10'1414.3
2015-Mar-30 16:33N 40°44' E 003°26'1714.9
2015-Mar-30 15:27N 40°36' E 003°46'1314.6
2015-Mar-30 14:33N 40°30' E 004°01'20612.8
2015-Mar-29 22:30N 38°54' E 007°58'2311.8
2015-Mar-29 20:33N 38°45' E 008°25'1211.5
2015-Mar-29 19:32N 38°43' E 008°40'1312.8
2015-Mar-29 18:33N 38°47' E 008°55'1312.9
2015-Mar-29 17:33N 38°55' E 009°08'10 9.6
2015-Mar-29 16:32N 39°04' E 009°03'0 0.1
2015-Mar-29 15:32N 39°04' E 009°03'1 1.2
2015-Mar-29 14:33N 39°05' E 009°02'0 0.0
2015-Mar-29 13:33N 39°05' E 009°02'0 0.0
2015-Mar-29 12:33N 39°05' E 009°02'0 0.0
2015-Mar-29 11:33N 39°05' E 009°02'0 0.0
2015-Mar-29 10:33N 39°05' E 009°02'0 0.0
2015-Mar-29 09:33N 39°05' E 009°02'0 0.0
2015-Mar-29 08:33N 39°05' E 009°02'0 0.0
2015-Mar-29 07:33N 39°05' E 009°02'0 0.0
2015-Mar-29 06:33N 39°05' E 009°02'0 0.0
2015-Mar-29 05:33N 39°05' E 009°02'0 0.0
2015-Mar-29 04:33N 39°05' E 009°02'0 0.0
2015-Mar-29 03:33N 39°05' E 009°02'0 0.0
2015-Mar-29 02:33N 39°05' E 009°02'0 0.0
2015-Mar-29 01:33N 39°05' E 009°02'0 0.0
2015-Mar-29 00:33N 39°05' E 009°02'0 0.0
2015-Mar-28 23:33N 39°05' E 009°02'0 0.0
2015-Mar-28 22:32N 39°05' E 009°02'0 0.0
2015-Mar-28 21:32N 39°05' E 009°02'0 0.0
2015-Mar-28 20:32N 39°05' E 009°02'0 0.0
2015-Mar-28 19:32N 39°05' E 009°02'0 0.0
2015-Mar-28 18:32N 39°05' E 009°02'0 0.0
2015-Mar-28 17:32N 39°05' E 009°02'0 0.0
2015-Mar-28 16:32N 39°05' E 009°02'0 0.0
2015-Mar-28 15:30N 39°05' E 009°02'2 2.1
2015-Mar-28 14:30N 39°07' E 009°03'0 0.1
2015-Mar-28 13:33N 39°07' E 009°03'0 0.0
2015-Mar-28 12:33N 39°07' E 009°03'0 0.0
2015-Mar-28 11:33N 39°07' E 009°03'0 0.0
2015-Mar-28 10:33N 39°07' E 009°03'0 0.0
2015-Mar-28 09:33N 39°07' E 009°03'0 0.0
2015-Mar-28 08:33N 39°07' E 009°03'0 0.0
2015-Mar-28 07:33N 39°07' E 009°03'0 0.0
2015-Mar-28 06:33N 39°07' E 009°03'0 0.0
2015-Mar-28 05:33N 39°07' E 009°03'0 0.0
2015-Mar-28 04:33N 39°07' E 009°03'0 0.0
2015-Mar-28 03:33N 39°07' E 009°03'0 0.0
2015-Mar-28 02:33N 39°07' E 009°03'0 0.0
2015-Mar-28 01:33N 39°07' E 009°03'0 0.0
2015-Mar-28 00:33N 39°07' E 009°03'0 0.0
2015-Mar-27 23:33N 39°07' E 009°03'0 0.0
2015-Mar-27 22:33N 39°07' E 009°03'0 0.0
2015-Mar-27 21:33N 39°07' E 009°03'0 0.0
2015-Mar-27 20:33N 39°07' E 009°03'0 0.0
2015-Mar-27 19:33N 39°07' E 009°03'2 1.6
2015-Mar-27 18:33N 39°06' E 009°02'0 0.0
2015-Mar-27 17:33N 39°06' E 009°02'0 0.0
2015-Mar-27 16:33N 39°06' E 009°02'0 0.0
2015-Mar-27 15:33N 39°06' E 009°02'0 0.0
2015-Mar-27 14:33N 39°06' E 009°02'0 0.0
2015-Mar-27 13:33N 39°06' E 009°02'0 0.0
2015-Mar-27 12:33N 39°06' E 009°02'0 0.0
2015-Mar-27 11:33N 39°06' E 009°02'0 0.0
2015-Mar-27 10:33N 39°06' E 009°02'0 0.0
2015-Mar-27 09:33N 39°06' E 009°02'0 0.0
2015-Mar-27 08:33N 39°06' E 009°02'0 0.0
2015-Mar-27 07:33N 39°06' E 009°02'0 0.0
2015-Mar-27 06:33N 39°06' E 009°02'0 0.0
2015-Mar-27 05:33N 39°06' E 009°02'0 0.0
2015-Mar-27 04:33N 39°06' E 009°02'0 0.0
2015-Mar-27 03:33N 39°06' E 009°02'0 0.0
2015-Mar-27 02:33N 39°06' E 009°02'0 0.0
2015-Mar-27 01:33N 39°06' E 009°02'0 0.0
2015-Mar-27 00:33N 39°06' E 009°02'0 0.0
2015-Mar-26 23:33N 39°06' E 009°02'0 0.0
2015-Mar-26 22:33N 39°06' E 009°02'0 0.0
2015-Mar-26 21:33N 39°06' E 009°02'0 0.0
2015-Mar-26 20:33N 39°06' E 009°02'0 0.0
2015-Mar-26 19:33N 39°06' E 009°02'0 0.0
2015-Mar-26 18:33N 39°06' E 009°02'0 0.0
2015-Mar-26 17:33N 39°06' E 009°02'0 0.0
2015-Mar-26 16:33N 39°06' E 009°02'0 0.0
2015-Mar-26 15:33N 39°06' E 009°02'0 0.0
2015-Mar-26 14:33N 39°06' E 009°02'0 0.0
2015-Mar-26 13:33N 39°06' E 009°02'0 0.0
2015-Mar-26 12:33N 39°06' E 009°02'0 0.0
2015-Mar-26 11:33N 39°06' E 009°02'0 0.0
2015-Mar-26 10:33N 39°06' E 009°02'0 0.0
2015-Mar-26 09:33N 39°06' E 009°02'2 2.2
2015-Mar-26 08:33N 39°07' E 009°04'0 0.0
2015-Mar-26 07:33N 39°07' E 009°04'0 0.0
2015-Mar-26 06:33N 39°07' E 009°04'0 0.0
2015-Mar-26 05:33N 39°07' E 009°04'0 0.0
2015-Mar-26 04:33N 39°07' E 009°04'0 0.0
2015-Mar-26 03:33N 39°07' E 009°04'0 0.2
2015-Mar-26 02:33N 39°07' E 009°04'0 0.0
2015-Mar-26 01:33N 39°07' E 009°04'0 0.0
2015-Mar-26 00:33N 39°07' E 009°04'0 0.0
2015-Mar-25 23:33N 39°07' E 009°04'0 0.0
2015-Mar-25 22:33N 39°07' E 009°04'0 0.0
2015-Mar-25 21:33N 39°07' E 009°04'0 0.1
2015-Mar-25 20:33N 39°07' E 009°04'0 0.1
2015-Mar-25 19:33N 39°07' E 009°04'0 0.1
2015-Mar-25 18:33N 39°07' E 009°04'0 0.0
2015-Mar-25 17:33N 39°07' E 009°04'0 0.0
2015-Mar-25 16:33N 39°07' E 009°04'0 0.0
2015-Mar-25 15:33N 39°07' E 009°04'0 0.0
2015-Mar-25 14:33N 39°07' E 009°04'0 0.1
2015-Mar-25 13:32N 39°07' E 009°04'0 0.0
2015-Mar-25 12:32N 39°07' E 009°04'0 0.0
2015-Mar-25 11:32N 39°07' E 009°04'0 0.1
2015-Mar-25 10:32N 39°07' E 009°04'0 0.1
2015-Mar-25 09:32N 39°07' E 009°04'0 0.0
2015-Mar-25 08:32N 39°07' E 009°04'0 0.0
2015-Mar-25 07:32N 39°07' E 009°04'0 0.0
2015-Mar-25 06:32N 39°07' E 009°04'0 0.1
2015-Mar-25 05:32N 39°07' E 009°04'0 0.0
2015-Mar-25 04:32N 39°07' E 009°04'0 0.0
2015-Mar-25 03:32N 39°07' E 009°04'0 0.0
2015-Mar-25 02:32N 39°07' E 009°04'0 0.0
2015-Mar-25 01:32N 39°07' E 009°04'0 0.0
2015-Mar-25 00:32N 39°07' E 009°04'0 0.0
2015-Mar-24 23:32N 39°07' E 009°04'0 0.0
2015-Mar-24 22:32N 39°07' E 009°04'0 0.0
2015-Mar-24 21:32N 39°07' E 009°04'0 0.0
2015-Mar-24 20:32N 39°07' E 009°04'0 0.0
2015-Mar-24 19:32N 39°07' E 009°04'0 0.0
2015-Mar-24 18:32N 39°07' E 009°04'0 0.0
2015-Mar-24 17:32N 39°07' E 009°04'0 0.0
2015-Mar-24 16:32N 39°07' E 009°04'0 0.0
2015-Mar-24 15:32N 39°07' E 009°04'0 0.0
2015-Mar-24 14:32N 39°07' E 009°04'0 0.0
2015-Mar-24 13:32N 39°07' E 009°04'0 0.0
2015-Mar-24 12:32N 39°07' E 009°04'0 0.0
2015-Mar-24 11:32N 39°07' E 009°04'0 0.0
2015-Mar-24 10:32N 39°07' E 009°04'0 0.0
2015-Mar-24 09:32N 39°07' E 009°04'0 0.0
2015-Mar-24 08:32N 39°07' E 009°04'0 0.0
2015-Mar-24 07:32N 39°07' E 009°04'0 0.0
2015-Mar-24 06:32N 39°07' E 009°04'0 0.0
2015-Mar-24 05:32N 39°07' E 009°04'0 0.0
2015-Mar-24 04:32N 39°07' E 009°04'0 0.0
2015-Mar-24 03:32N 39°07' E 009°04'0 0.0
2015-Mar-24 02:32N 39°07' E 009°04'0 0.0
2015-Mar-24 01:32N 39°07' E 009°04'0 0.0
2015-Mar-24 00:32N 39°07' E 009°04'0 0.0
2015-Mar-23 23:32N 39°07' E 009°04'0 0.0
2015-Mar-23 22:32N 39°07' E 009°04'0 0.0
2015-Mar-23 21:32N 39°07' E 009°04'0 0.0
2015-Mar-23 20:32N 39°07' E 009°04'0 0.0
2015-Mar-23 19:32N 39°07' E 009°04'0 0.0
2015-Mar-23 18:32N 39°07' E 009°04'0 0.0
2015-Mar-23 17:32N 39°07' E 009°04'0 0.0
2015-Mar-23 16:32N 39°07' E 009°04'0 0.0
2015-Mar-23 15:32N 39°07' E 009°04'0 0.0
2015-Mar-23 14:32N 39°07' E 009°04'0 0.0
2015-Mar-23 13:32N 39°07' E 009°04'0 0.0
2015-Mar-23 12:32N 39°07' E 009°04'0 0.0
2015-Mar-23 11:32N 39°07' E 009°04'0 0.0
2015-Mar-23 10:32N 39°07' E 009°04'0 0.0
2015-Mar-23 09:32N 39°07' E 009°04'0 0.1
2015-Mar-23 08:32N 39°07' E 009°04'0 0.0
2015-Mar-23 07:32N 39°07' E 009°04'0 0.0
2015-Mar-23 06:32N 39°07' E 009°04'0 0.0
2015-Mar-23 05:32N 39°07' E 009°04'0 0.0
2015-Mar-23 04:32N 39°07' E 009°04'0 0.0
2015-Mar-23 03:32N 39°07' E 009°04'0 0.0
2015-Mar-23 02:32N 39°07' E 009°04'0 0.0
2015-Mar-23 01:32N 39°07' E 009°04'0 0.0
2015-Mar-23 00:32N 39°07' E 009°04'0 0.0
2015-Mar-22 23:32N 39°07' E 009°04'0 0.0
2015-Mar-22 22:32N 39°07' E 009°04'0 0.0
2015-Mar-22 21:32N 39°07' E 009°04'0 0.0
2015-Mar-22 20:32N 39°07' E 009°04'0 0.0
2015-Mar-22 19:32N 39°07' E 009°04'0 0.0
2015-Mar-22 18:32N 39°07' E 009°04'0 0.0
2015-Mar-22 17:32N 39°07' E 009°04'0 0.0
2015-Mar-22 16:32N 39°07' E 009°04'0 0.0
2015-Mar-22 15:32N 39°07' E 009°04'0 0.1
2015-Mar-22 14:32N 39°07' E 009°04'0 0.0
2015-Mar-22 13:32N 39°07' E 009°04'0 0.0
2015-Mar-22 12:32N 39°07' E 009°04'0 0.1
2015-Mar-22 11:32N 39°07' E 009°04'0 0.1
2015-Mar-22 10:32N 39°07' E 009°04'0 0.0
2015-Mar-22 09:32N 39°07' E 009°04'0 0.1
2015-Mar-22 08:32N 39°07' E 009°04'0 0.0
2015-Mar-22 07:32N 39°07' E 009°04'0 0.0
2015-Mar-22 06:32N 39°07' E 009°04'0 0.0
2015-Mar-22 05:32N 39°07' E 009°04'0 0.0
2015-Mar-22 04:32N 39°07' E 009°04'0 0.0
2015-Mar-22 03:32N 39°07' E 009°04'0 0.0
2015-Mar-22 02:32N 39°07' E 009°04'0 0.0
2015-Mar-22 01:32N 39°07' E 009°04'0 0.1
2015-Mar-22 00:32N 39°07' E 009°04'0 0.1
2015-Mar-21 23:29N 39°07' E 009°04'0 0.1
2015-Mar-21 22:32N 39°07' E 009°04'0 0.0
2015-Mar-21 21:32N 39°07' E 009°04'0 0.1
2015-Mar-21 20:32N 39°07' E 009°04'0 0.0
2015-Mar-21 19:32N 39°07' E 009°04'0 0.0
2015-Mar-21 18:32N 39°07' E 009°04'0 0.0
2015-Mar-21 17:32N 39°07' E 009°04'0 0.0
2015-Mar-21 16:32N 39°07' E 009°04'0 0.0
2015-Mar-21 15:32N 39°07' E 009°04'0 0.0
2015-Mar-21 14:29N 39°07' E 009°04'0 0.1
2015-Mar-21 13:32N 39°07' E 009°04'0 0.0
2015-Mar-21 12:32N 39°07' E 009°04'0 0.1
2015-Mar-21 11:32N 39°07' E 009°04'0 0.0
2015-Mar-21 10:32N 39°07' E 009°04'0 0.0
2015-Mar-21 09:32N 39°07' E 009°04'0 0.0
2015-Mar-21 08:32N 39°07' E 009°04'0 0.1
2015-Mar-21 07:32N 39°07' E 009°04'0 0.0
2015-Mar-21 06:32N 39°07' E 009°04'0 0.0
2015-Mar-21 05:32N 39°07' E 009°04'0 0.0
2015-Mar-21 04:29N 39°07' E 009°04'0 0.0
2015-Mar-21 03:33N 39°07' E 009°04'0 0.0
2015-Mar-21 02:32N 39°07' E 009°04'0 0.0
2015-Mar-21 01:32N 39°07' E 009°04'0 0.0
2015-Mar-21 00:32N 39°07' E 009°04'0 0.0
2015-Mar-20 23:32N 39°07' E 009°04'0 0.0
2015-Mar-20 22:32N 39°07' E 009°04'  

Dump ship's entire track history